createdAt,value
2022-10-21T00:02:41.591Z,10.42
2022-10-21T00:05:44.224Z,10.40
2022-10-21T00:08:46.949Z,10.43
2022-10-21T00:11:49.614Z,10.48
2022-10-21T00:14:56.433Z,10.45
2022-10-21T00:18:00.418Z,10.72
2022-10-21T00:21:07.148Z,10.63
2022-10-21T00:24:10.049Z,10.46
2022-10-21T00:27:12.622Z,10.38
2022-10-21T00:30:16.756Z,10.45
2022-10-21T00:33:19.498Z,10.45
2022-10-21T00:36:22.092Z,10.50
2022-10-21T00:39:24.850Z,10.53
2022-10-21T00:42:34.497Z,10.58
2022-10-21T00:45:38.726Z,10.72
2022-10-21T00:48:44.307Z,10.60
2022-10-21T00:51:50.660Z,10.54
2022-10-21T00:54:56.201Z,10.54
2022-10-21T00:57:59.063Z,10.51
2022-10-21T01:01:04.996Z,10.50
2022-10-21T01:04:07.739Z,10.50
2022-10-21T01:07:10.513Z,10.47
2022-10-21T01:10:13.251Z,10.51
2022-10-21T01:13:24.438Z,10.52
2022-10-21T01:16:37.830Z,10.53
2022-10-21T01:20:05.178Z,10.52
2022-10-21T01:23:31.312Z,10.57
2022-10-21T01:27:13.021Z,10.48
2022-10-21T01:30:45.034Z,10.41
2022-10-21T01:33:54.308Z,10.47
2022-10-21T01:37:02.903Z,10.40
2022-10-21T01:40:10.326Z,10.47
2022-10-21T01:43:21.813Z,10.50
2022-10-21T01:46:28.723Z,10.53
2022-10-21T01:49:37.815Z,10.60
2022-10-21T01:52:43.352Z,10.51
2022-10-21T01:55:48.174Z,10.49
2022-10-21T01:58:52.827Z,10.51
2022-10-21T02:01:57.966Z,10.54
2022-10-21T02:05:07.847Z,10.49
2022-10-21T02:08:10.598Z,10.45
2022-10-21T02:11:13.730Z,10.52
2022-10-21T02:14:21.106Z,10.58
2022-10-21T02:17:24.189Z,10.74
2022-10-21T02:20:32.483Z,10.53
2022-10-21T02:23:46.835Z,10.59
2022-10-21T02:26:49.784Z,10.59
2022-10-21T02:29:56.666Z,10.48
2022-10-21T02:33:06.919Z,10.48
2022-10-21T02:36:15.428Z,10.50
2022-10-21T02:39:22.894Z,10.56
2022-10-21T02:42:29.835Z,10.61
2022-10-21T02:45:34.220Z,10.54
2022-10-21T02:48:38.318Z,10.57
2022-10-21T02:51:43.190Z,10.54
2022-10-21T02:54:45.723Z,10.51
2022-10-21T02:57:48.429Z,10.47
2022-10-21T03:00:51.010Z,10.44
2022-10-21T03:03:53.815Z,10.43
2022-10-21T03:06:57.882Z,10.50
2022-10-21T03:10:00.461Z,10.53
2022-10-21T03:13:03.222Z,10.63
2022-10-21T03:16:06.203Z,10.62
2022-10-21T03:19:08.926Z,10.62
2022-10-21T03:22:12.983Z,10.64
2022-10-21T03:25:15.556Z,10.71
2022-10-21T03:28:18.291Z,10.75
2022-10-21T03:31:20.881Z,10.69
2022-10-21T03:34:23.582Z,10.80
2022-10-21T03:37:27.711Z,10.86
2022-10-21T03:40:30.861Z,10.75
2022-10-21T03:43:33.546Z,10.68
2022-10-21T03:46:36.121Z,10.79
2022-10-21T03:49:38.699Z,10.78
2022-10-21T03:52:42.840Z,10.75
2022-10-21T03:55:45.450Z,10.78
2022-10-21T03:58:48.133Z,10.72
2022-10-21T04:01:50.704Z,10.79
2022-10-21T04:04:53.493Z,10.77
2022-10-21T04:07:57.423Z,10.85
2022-10-21T04:11:00.138Z,10.76
2022-10-21T04:14:02.778Z,10.69
2022-10-21T04:17:07.691Z,10.83
2022-10-21T04:20:11.783Z,10.79
2022-10-21T04:23:15.773Z,10.70
2022-10-21T04:26:18.499Z,10.68
2022-10-21T04:29:21.230Z,10.68
2022-10-21T04:32:23.790Z,10.68
2022-10-21T04:35:26.523Z,10.71
2022-10-21T04:38:30.499Z,10.81
2022-10-21T04:41:33.085Z,10.79
2022-10-21T04:44:35.671Z,10.73
2022-10-21T04:47:38.514Z,10.78
2022-10-21T04:50:41.413Z,10.76
2022-10-21T04:53:45.549Z,10.72
2022-10-21T04:56:48.299Z,10.80
2022-10-21T04:59:50.862Z,10.79
2022-10-21T05:02:53.568Z,10.77
2022-10-21T05:05:56.295Z,10.80
2022-10-21T05:09:00.416Z,10.84
2022-10-21T05:12:03.383Z,10.89
2022-10-21T05:15:06.585Z,10.92
2022-10-21T05:18:09.170Z,10.97
2022-10-21T05:21:11.843Z,10.93
2022-10-21T05:24:16.127Z,10.98
2022-10-21T05:27:18.669Z,10.95
2022-10-21T05:30:21.255Z,10.81
2022-10-21T05:33:23.798Z,10.79
2022-10-21T05:36:26.514Z,10.80
2022-10-21T05:39:30.608Z,10.90
2022-10-21T05:42:33.239Z,10.83
2022-10-21T05:45:35.810Z,10.86
2022-10-21T05:48:38.462Z,10.88
2022-10-21T05:51:41.205Z,10.82
2022-10-21T05:54:45.139Z,10.87
2022-10-21T05:57:47.744Z,10.96
2022-10-21T06:00:51.118Z,10.88
2022-10-21T06:03:53.731Z,10.82
2022-10-21T06:10:06.361Z,10.87
2022-10-21T06:13:08.959Z,10.96
2022-10-21T06:16:13.783Z,10.94
2022-10-21T06:19:16.488Z,11.02
2022-10-21T06:22:19.183Z,11.15
2022-10-21T06:25:23.958Z,11.10
2022-10-21T06:28:28.140Z,11.16
2022-10-21T06:31:30.843Z,11.22
2022-10-21T06:34:33.421Z,11.28
2022-10-21T06:37:36.432Z,11.35
2022-10-21T06:40:40.664Z,11.33
2022-10-21T06:43:43.704Z,11.30
2022-10-21T06:46:46.402Z,11.36
2022-10-21T06:49:48.961Z,11.25
2022-10-21T06:52:51.597Z,11.35
2022-10-21T06:56:03.393Z,11.41
2022-10-21T06:59:05.999Z,11.47
2022-10-21T07:02:10.231Z,11.44
2022-10-21T07:05:12.784Z,11.58
2022-10-21T07:08:15.528Z,11.61
2022-10-21T07:11:20.758Z,11.61
2022-10-21T07:14:23.845Z,11.56
2022-10-21T07:17:26.762Z,11.70
2022-10-21T07:20:29.321Z,11.71
2022-10-21T07:23:32.025Z,11.80
2022-10-21T07:26:36.333Z,11.89
2022-10-21T07:29:38.951Z,11.82
2022-10-21T07:32:41.650Z,11.87
2022-10-21T07:35:44.231Z,11.91
2022-10-21T07:38:48.024Z,12.02
2022-10-21T07:41:54.086Z,12.24
2022-10-21T07:44:59.420Z,12.20
2022-10-21T07:48:02.109Z,12.13
2022-10-21T07:51:06.091Z,12.19
2022-10-21T07:54:09.578Z,12.29
2022-10-21T07:57:13.492Z,12.35
2022-10-21T08:00:16.209Z,12.32
2022-10-21T08:03:18.876Z,12.46
2022-10-21T08:06:22.194Z,12.49
2022-10-21T08:09:26.386Z,12.52
2022-10-21T08:12:30.434Z,12.56
2022-10-21T08:15:34.732Z,12.68
2022-10-21T08:18:37.433Z,12.74
2022-10-21T08:21:40.001Z,12.84
2022-10-21T08:24:42.684Z,12.79
2022-10-21T08:27:46.712Z,13.03
2022-10-21T08:30:49.530Z,13.00
2022-10-21T08:33:52.211Z,12.97
2022-10-21T08:36:54.745Z,13.06
2022-10-21T08:39:57.406Z,13.03
2022-10-21T08:43:08.807Z,13.18
2022-10-21T08:46:16.824Z,13.10
2022-10-21T08:49:27.270Z,13.14
2022-10-21T08:52:40.312Z,13.17
2022-10-21T08:55:45.758Z,13.27
2022-10-21T08:58:52.602Z,13.54
2022-10-21T09:02:02.344Z,13.75
2022-10-21T09:05:24.146Z,14.17
2022-10-21T09:08:35.856Z,14.31
2022-10-21T09:12:03.905Z,14.59
2022-10-21T09:15:18.900Z,14.65
2022-10-21T09:18:32.217Z,14.73
2022-10-21T09:21:46.240Z,14.86
2022-10-21T09:24:53.401Z,14.87
2022-10-21T09:27:57.524Z,14.84
2022-10-21T09:31:04.429Z,15.00
2022-10-21T09:34:17.407Z,15.30
2022-10-21T09:37:29.418Z,15.81
2022-10-21T09:40:34.931Z,15.70
2022-10-21T09:43:37.632Z,15.39
2022-10-21T09:46:41.568Z,15.25
2022-10-21T09:50:06.254Z,15.21
2022-10-21T09:53:16.428Z,15.19
2022-10-21T09:56:21.330Z,15.11
2022-10-21T09:59:29.056Z,15.35
2022-10-21T10:02:38.022Z,15.31
2022-10-21T10:05:44.062Z,15.38
2022-10-21T10:08:48.201Z,15.40
2022-10-21T10:11:54.584Z,15.51
2022-10-21T10:14:57.704Z,15.31
2022-10-21T10:18:04.582Z,15.26
2022-10-21T10:21:11.122Z,15.45
2022-10-21T10:24:22.580Z,15.70
2022-10-21T10:27:26.733Z,16.60
2022-10-21T10:30:38.090Z,17.29
2022-10-21T10:33:58.713Z,17.81
2022-10-21T10:37:06.008Z,18.20
2022-10-21T10:40:11.205Z,18.28
2022-10-21T10:43:16.886Z,18.12
2022-10-21T10:49:56.904Z,17.35
2022-10-21T10:53:21.453Z,17.36
2022-10-21T10:56:29.362Z,17.38
2022-10-21T10:59:36.803Z,17.53
2022-10-21T11:02:49.226Z,17.69
2022-10-21T11:05:58.951Z,17.61
2022-10-21T11:09:03.458Z,17.55
2022-10-21T11:12:14.460Z,17.82
2022-10-21T11:15:17.659Z,17.62
2022-10-21T11:18:30.128Z,17.74
2022-10-21T11:21:46.613Z,17.90
2022-10-21T11:25:05.422Z,18.01
2022-10-21T11:28:17.167Z,18.27
2022-10-21T11:31:27.156Z,18.27
2022-10-21T11:34:40.656Z,18.17
2022-10-21T11:37:56.495Z,18.11
2022-10-21T11:41:07.657Z,18.17
2022-10-21T11:44:20.919Z,18.22
2022-10-21T11:47:35.992Z,18.01
2022-10-21T11:50:45.467Z,18.02
2022-10-21T11:54:07.743Z,18.17
2022-10-21T11:57:18.087Z,18.35
2022-10-21T12:00:24.698Z,18.53
2022-10-21T12:03:44.911Z,18.72
2022-10-21T12:06:57.570Z,18.60
2022-10-21T12:10:06.394Z,18.52
2022-10-21T12:13:16.395Z,19.05
2022-10-21T12:16:24.079Z,19.31
2022-10-21T12:19:27.861Z,19.03
2022-10-21T12:22:33.619Z,19.00
2022-10-21T12:25:45.531Z,18.91
2022-10-21T12:28:57.763Z,18.60
2022-10-21T12:32:07.240Z,18.47
2022-10-21T12:35:14.493Z,18.30
2022-10-21T12:38:22.956Z,18.26
2022-10-21T12:41:34.324Z,18.25
2022-10-21T12:44:39.248Z,18.20
2022-10-21T12:47:46.187Z,17.87
2022-10-21T12:50:58.308Z,17.98
2022-10-21T12:54:08.643Z,17.78
2022-10-21T12:57:25.087Z,17.87
2022-10-21T13:00:56.448Z,17.85
2022-10-21T13:03:59.074Z,17.84
2022-10-21T13:07:02.572Z,17.74
2022-10-21T13:10:26.655Z,17.66
2022-10-21T13:13:34.166Z,17.81
2022-10-21T13:16:40.348Z,17.65
2022-10-21T13:19:43.198Z,17.71
2022-10-21T13:22:47.832Z,17.57
2022-10-21T13:26:13.561Z,17.38
2022-10-21T13:29:46.267Z,17.45
2022-10-21T13:33:01.396Z,17.47
2022-10-21T13:36:11.913Z,17.25
2022-10-21T13:39:25.864Z,17.21
2022-10-21T13:42:34.583Z,17.23
2022-10-21T13:45:44.006Z,16.98
2022-10-21T13:48:48.712Z,17.13
2022-10-21T13:51:53.834Z,16.93
2022-10-21T13:55:00.589Z,16.88
2022-10-21T13:58:03.142Z,16.89
2022-10-21T14:01:12.310Z,16.80
2022-10-21T14:04:16.840Z,16.78
2022-10-21T14:07:20.882Z,16.87
2022-10-21T14:10:23.711Z,16.82
2022-10-21T14:13:29.946Z,16.79
2022-10-21T14:16:36.804Z,16.79
2022-10-21T14:19:40.041Z,16.76
2022-10-21T14:22:43.549Z,16.87
2022-10-21T14:25:48.929Z,16.75
2022-10-21T14:28:52.137Z,16.71
2022-10-21T14:31:56.312Z,16.66
2022-10-21T14:35:03.099Z,16.64
2022-10-21T14:38:26.420Z,16.69
2022-10-21T14:41:33.580Z,16.54
2022-10-21T14:44:36.249Z,16.57
2022-10-21T14:47:40.196Z,16.50
2022-10-21T14:50:43.933Z,16.53
2022-10-21T14:53:51.589Z,16.44
2022-10-21T14:56:54.561Z,16.46
2022-10-21T14:59:58.213Z,16.45
2022-10-21T15:03:02.933Z,16.34
2022-10-21T15:06:10.886Z,16.46
2022-10-21T15:09:23.296Z,16.29
2022-10-21T15:12:26.026Z,16.20
2022-10-21T15:15:53.827Z,16.17
2022-10-21T15:18:59.284Z,16.14
2022-10-21T15:22:04.138Z,16.27
2022-10-21T15:25:16.807Z,16.16
2022-10-21T15:28:20.822Z,16.19
2022-10-21T15:31:25.031Z,16.14
2022-10-21T15:34:29.558Z,16.12
2022-10-21T15:37:32.252Z,16.16
2022-10-21T15:40:34.818Z,16.10
2022-10-21T15:43:37.583Z,16.16
2022-10-21T15:46:46.206Z,16.03
2022-10-21T15:49:51.001Z,16.00
2022-10-21T15:56:01.998Z,16.04
2022-10-21T15:59:05.238Z,15.93
2022-10-21T16:02:14.101Z,15.99
2022-10-21T16:05:21.489Z,15.92
2022-10-21T16:08:24.116Z,15.83
2022-10-21T16:11:40.638Z,15.87
2022-10-21T16:14:44.125Z,15.86
2022-10-21T16:17:48.939Z,15.77
2022-10-21T16:20:54.919Z,15.80
2022-10-21T16:23:58.552Z,15.81
2022-10-21T16:27:01.223Z,15.79
2022-10-21T16:30:14.907Z,15.76
2022-10-21T16:33:17.615Z,15.81
2022-10-21T16:36:23.931Z,15.70
2022-10-21T16:39:26.529Z,15.71
2022-10-21T16:42:29.160Z,15.69
2022-10-21T16:45:33.638Z,15.91
2022-10-21T16:48:36.233Z,15.81
2022-10-21T16:51:41.762Z,15.70
2022-10-21T16:54:48.461Z,15.78
2022-10-21T16:57:51.514Z,15.73
2022-10-21T17:00:54.309Z,15.66
2022-10-21T17:03:56.908Z,15.66
2022-10-21T17:07:01.971Z,15.63
2022-10-21T17:10:05.064Z,15.56
2022-10-21T17:13:07.925Z,15.46
2022-10-21T17:16:10.969Z,15.44
2022-10-21T17:19:14.170Z,15.38
2022-10-21T17:22:18.130Z,15.49
2022-10-21T17:25:22.789Z,15.48
2022-10-21T17:28:25.332Z,15.52
2022-10-21T17:31:29.576Z,15.36
2022-10-21T17:34:36.648Z,15.33
2022-10-21T17:37:40.969Z,15.30
2022-10-21T17:40:43.764Z,15.31
2022-10-21T17:43:46.326Z,15.25
2022-10-21T17:46:52.949Z,15.32
2022-10-21T17:49:55.511Z,15.32
2022-10-21T17:53:00.463Z,15.32
2022-10-21T17:56:06.307Z,15.28
2022-10-21T17:59:09.451Z,15.31
2022-10-21T18:02:12.125Z,15.27
2022-10-21T18:05:14.824Z,15.19
2022-10-21T18:08:18.750Z,15.30
2022-10-21T18:11:22.187Z,15.32
2022-10-21T18:14:24.743Z,15.30
2022-10-21T18:17:27.484Z,15.38
2022-10-21T18:20:30.196Z,15.37
2022-10-21T18:23:34.499Z,15.38
2022-10-21T18:26:37.737Z,15.30
2022-10-21T18:29:40.295Z,15.32
2022-10-21T18:32:43.191Z,15.29
2022-10-21T18:35:45.881Z,15.30
2022-10-21T18:38:50.195Z,15.28
2022-10-21T18:41:53.691Z,15.34
2022-10-21T18:44:56.256Z,15.36
2022-10-21T18:47:58.980Z,15.33
2022-10-21T18:51:06.490Z,15.36
2022-10-21T18:54:10.710Z,15.38
2022-10-21T18:57:13.437Z,15.39
2022-10-21T19:00:16.194Z,15.39
2022-10-21T19:03:18.870Z,15.35
2022-10-21T19:06:31.648Z,15.37
2022-10-21T19:09:38.256Z,15.36
2022-10-21T19:12:40.952Z,15.42
2022-10-21T19:15:44.160Z,15.41
2022-10-21T19:18:46.910Z,15.41
2022-10-21T19:21:49.613Z,15.43
2022-10-21T19:24:53.711Z,15.43
2022-10-21T19:27:56.425Z,15.42
2022-10-21T19:30:59.024Z,15.41
2022-10-21T19:34:01.761Z,15.41
2022-10-21T19:37:04.346Z,15.44
2022-10-21T19:40:09.162Z,15.46
2022-10-21T19:43:14.882Z,15.47
2022-10-21T19:46:22.384Z,15.44
2022-10-21T19:49:28.177Z,15.46
2022-10-21T19:52:30.725Z,15.46
2022-10-21T19:55:35.198Z,15.50
2022-10-21T19:58:39.853Z,15.42
2022-10-21T20:01:42.612Z,15.48
2022-10-21T20:04:45.487Z,15.45
2022-10-21T20:07:48.049Z,15.46
2022-10-21T20:11:01.083Z,15.53
2022-10-21T20:14:04.249Z,15.52
2022-10-21T20:17:06.948Z,15.54
2022-10-21T20:20:09.945Z,15.55
2022-10-21T20:23:12.517Z,15.54
2022-10-21T20:26:16.727Z,15.54
2022-10-21T20:29:19.671Z,15.53
2022-10-21T20:32:22.365Z,15.54
2022-10-21T20:35:25.066Z,15.56
2022-10-21T20:38:27.637Z,15.53
2022-10-21T20:41:34.563Z,15.56
2022-10-21T20:44:37.197Z,15.55
2022-10-21T20:47:40.244Z,15.53
2022-10-21T20:50:43.184Z,15.57
2022-10-21T20:56:55.336Z,15.58
2022-10-21T20:59:58.044Z,15.60
2022-10-21T21:03:00.753Z,15.57
2022-10-21T21:06:07.113Z,15.60
2022-10-21T21:12:33.967Z,15.65
2022-10-21T21:15:36.674Z,15.63
2022-10-21T21:18:40.926Z,15.63
2022-10-21T21:21:43.490Z,15.67
2022-10-21T21:24:46.213Z,15.59
2022-10-21T21:27:50.546Z,15.56
2022-10-21T21:30:53.519Z,15.57
2022-10-21T21:33:56.665Z,15.56
2022-10-21T21:36:59.897Z,15.53
2022-10-21T21:40:02.665Z,15.52
2022-10-21T21:43:06.647Z,15.49
2022-10-21T21:46:09.620Z,15.49
2022-10-21T21:49:12.193Z,15.51
2022-10-21T21:52:15.080Z,15.49
2022-10-21T21:55:17.675Z,15.41
2022-10-21T21:58:21.613Z,15.42
2022-10-21T22:01:26.951Z,15.41
2022-10-21T22:04:29.638Z,15.41
2022-10-21T22:07:33.113Z,15.41
2022-10-21T22:10:36.174Z,15.39
2022-10-21T22:13:40.971Z,15.38
2022-10-21T22:16:43.733Z,15.38
2022-10-21T22:19:48.673Z,15.39
2022-10-21T22:22:53.322Z,15.39
2022-10-21T22:25:56.499Z,15.44
2022-10-21T22:29:00.438Z,15.35
2022-10-21T22:32:03.116Z,15.32
2022-10-21T22:35:06.372Z,15.33
2022-10-21T22:38:09.062Z,15.35
2022-10-21T22:41:12.810Z,15.30
2022-10-21T22:44:16.997Z,15.28
2022-10-21T22:47:23.408Z,15.29
2022-10-21T22:50:26.006Z,15.29
2022-10-21T22:53:29.073Z,15.33
2022-10-21T22:56:32.190Z,15.34
2022-10-21T22:59:37.417Z,15.35
2022-10-21T23:02:40.536Z,15.38
2022-10-21T23:05:43.865Z,15.39
2022-10-21T23:08:46.694Z,15.42
2022-10-21T23:11:49.814Z,15.48
2022-10-21T23:14:53.732Z,15.47
2022-10-21T23:17:56.457Z,15.47
2022-10-21T23:20:59.112Z,15.44
2022-10-21T23:24:01.842Z,15.41
2022-10-21T23:27:04.849Z,15.35
2022-10-21T23:30:09.717Z,15.40
2022-10-21T23:33:12.423Z,15.39
2022-10-21T23:36:15.013Z,15.36
2022-10-21T23:39:17.812Z,15.34
2022-10-21T23:42:20.507Z,15.33
2022-10-21T23:45:24.933Z,15.37
2022-10-21T23:48:27.631Z,15.36
2022-10-21T23:51:30.280Z,15.37
2022-10-21T23:54:32.985Z,15.35
2022-10-21T23:57:35.772Z,15.34
